createdAt,value
2023-03-13T00:03:21.268Z,988
2023-03-13T00:08:29.263Z,987
2023-03-13T00:13:37.185Z,987
2023-03-13T00:18:45.147Z,987
2023-03-13T00:23:53.140Z,987
2023-03-13T00:29:01.270Z,987
2023-03-13T00:34:09.022Z,987
2023-03-13T00:39:17.013Z,987
2023-03-13T00:44:24.953Z,986
2023-03-13T00:49:32.944Z,986
2023-03-13T00:54:40.931Z,986
2023-03-13T00:59:48.870Z,986
2023-03-13T01:04:58.658Z,986
2023-03-13T01:10:04.834Z,986
2023-03-13T01:15:12.770Z,986
2023-03-13T01:20:20.746Z,986
2023-03-13T01:25:28.766Z,986
2023-03-13T01:30:36.667Z,986
2023-03-13T01:35:44.129Z,986
2023-03-13T01:40:52.084Z,985
2023-03-13T01:46:00.133Z,985
2023-03-13T01:51:07.986Z,985
2023-03-13T01:56:15.974Z,985
2023-03-13T02:01:23.963Z,985
2023-03-13T02:06:31.913Z,985
2023-03-13T02:11:40.706Z,985
2023-03-13T02:16:47.859Z,985
2023-03-13T02:21:55.782Z,984
2023-03-13T02:27:03.778Z,984
2023-03-13T02:32:11.713Z,984
2023-03-13T02:37:19.700Z,984
2023-03-13T02:47:35.692Z,984
2023-03-13T02:52:43.592Z,984
2023-03-13T02:57:51.549Z,984
2023-03-13T03:02:59.664Z,984
2023-03-13T03:08:07.502Z,984
2023-03-13T03:13:14.876Z,984
2023-03-13T03:18:22.837Z,984
2023-03-13T03:23:30.780Z,984
2023-03-13T03:28:38.768Z,984
2023-03-13T03:33:46.744Z,984
2023-03-13T03:38:54.718Z,984
2023-03-13T03:44:02.649Z,984
2023-03-13T03:49:10.652Z,984
2023-03-13T03:54:18.612Z,984
2023-03-13T03:59:26.537Z,984
2023-03-13T04:04:34.540Z,984
2023-03-13T04:09:42.724Z,983
2023-03-13T04:14:50.448Z,983
2023-03-13T04:19:58.462Z,983
2023-03-13T04:25:06.387Z,983
2023-03-13T04:30:15.023Z,983
2023-03-13T04:35:22.379Z,983
2023-03-13T04:40:30.303Z,983
2023-03-13T04:45:38.235Z,983
2023-03-13T04:50:46.243Z,983
2023-03-13T04:55:54.156Z,983
2023-03-13T05:01:02.225Z,983
2023-03-13T05:06:10.185Z,983
2023-03-13T05:11:18.086Z,983
2023-03-13T05:16:26.397Z,983
2023-03-13T05:21:34.040Z,982
2023-03-13T05:26:41.972Z,982
2023-03-13T05:31:49.964Z,982
2023-03-13T05:36:57.929Z,983
2023-03-13T05:42:05.879Z,983
2023-03-13T05:47:13.886Z,982
2023-03-13T05:52:21.849Z,983
2023-03-13T05:57:29.764Z,983
2023-03-13T06:02:37.773Z,982
2023-03-13T06:07:45.729Z,982
2023-03-13T06:12:53.672Z,982
2023-03-13T06:18:01.669Z,982
2023-03-13T06:23:09.620Z,982
2023-03-13T06:28:17.577Z,982
2023-03-13T06:33:25.651Z,982
2023-03-13T06:38:33.523Z,982
2023-03-13T06:43:41.471Z,982
2023-03-13T06:48:49.433Z,982
2023-03-13T06:53:57.529Z,983
2023-03-13T06:59:05.396Z,983
2023-03-13T07:04:13.447Z,983
2023-03-13T07:09:21.341Z,983
2023-03-13T07:14:29.277Z,983
2023-03-13T07:19:37.306Z,983
2023-03-13T07:24:45.359Z,983
2023-03-13T07:29:53.186Z,983
2023-03-13T07:35:01.149Z,983
2023-03-13T07:40:09.130Z,983
2023-03-13T07:45:17.078Z,983
2023-03-13T07:50:25.115Z,983
2023-03-13T07:55:33.054Z,983
2023-03-13T08:00:40.954Z,983
2023-03-13T08:05:48.949Z,983
2023-03-13T08:10:57.027Z,983
2023-03-13T08:16:05.274Z,982
2023-03-13T08:21:12.828Z,982
2023-03-13T08:26:20.824Z,982
2023-03-13T08:31:28.964Z,982
2023-03-13T08:36:35.656Z,982
2023-03-13T08:41:43.689Z,982
2023-03-13T08:46:51.604Z,982
2023-03-13T08:51:59.578Z,982
2023-03-13T08:57:06.354Z,982
2023-03-13T09:02:13.079Z,982
2023-03-13T09:07:19.777Z,982
2023-03-13T09:12:30.729Z,982
2023-03-13T09:17:33.253Z,982
2023-03-13T09:22:40.010Z,982
2023-03-13T09:27:46.774Z,982
2023-03-13T09:32:53.533Z,982
2023-03-13T09:38:00.222Z,982
2023-03-13T09:43:06.971Z,982
2023-03-13T09:48:13.703Z,982
2023-03-13T09:53:20.431Z,982
2023-03-13T09:58:27.233Z,982
2023-03-13T10:03:33.911Z,982
2023-03-13T10:08:40.659Z,982
2023-03-13T10:13:47.402Z,982
2023-03-13T10:18:54.114Z,982
2023-03-13T10:24:00.855Z,982
2023-03-13T10:29:07.637Z,982
2023-03-13T10:34:14.363Z,982
2023-03-13T10:39:21.065Z,982
2023-03-13T10:44:27.849Z,981
2023-03-13T10:49:34.540Z,981
2023-03-13T10:54:41.275Z,981
2023-03-13T10:59:48.058Z,981
2023-03-13T11:04:54.768Z,981
2023-03-13T11:10:01.503Z,981
2023-03-13T11:15:08.362Z,981
2023-03-13T11:20:14.993Z,981
2023-03-13T11:25:21.726Z,981
2023-03-13T11:30:28.517Z,981
2023-03-13T11:35:35.269Z,981
2023-03-13T11:40:41.925Z,981
2023-03-13T11:45:48.813Z,980
2023-03-13T11:50:55.405Z,980
2023-03-13T11:56:02.151Z,980
2023-03-13T12:01:08.967Z,980
2023-03-13T12:06:27.353Z,980
2023-03-13T12:11:22.345Z,980
2023-03-13T12:16:29.129Z,980
2023-03-13T12:21:35.893Z,980
2023-03-13T12:26:42.567Z,980
2023-03-13T12:31:49.346Z,980
2023-03-13T12:36:56.050Z,980
2023-03-13T12:42:03.081Z,980
2023-03-13T12:47:09.486Z,980
2023-03-13T12:52:16.279Z,980
2023-03-13T12:57:23.073Z,979
2023-03-13T13:02:29.789Z,979
2023-03-13T13:07:36.478Z,979
2023-03-13T13:12:43.222Z,979
2023-03-13T13:17:49.984Z,979
2023-03-13T13:22:56.701Z,979
2023-03-13T13:28:03.429Z,979
2023-03-13T13:33:10.461Z,979
2023-03-13T13:38:16.937Z,979
2023-03-13T13:43:23.624Z,978
2023-03-13T13:48:30.402Z,978
2023-03-13T13:53:39.416Z,978
2023-03-13T13:58:43.848Z,978
2023-03-13T14:03:50.632Z,978
2023-03-13T14:08:57.318Z,978
2023-03-13T14:14:04.046Z,978
2023-03-13T14:19:10.933Z,978
2023-03-13T14:24:17.545Z,978
2023-03-13T14:29:24.304Z,978
2023-03-13T14:34:32.836Z,978
2023-03-13T14:39:37.768Z,978
2023-03-13T14:44:44.490Z,978
2023-03-13T14:49:51.337Z,978
2023-03-13T14:54:57.990Z,978
2023-03-13T15:00:04.715Z,977
2023-03-13T15:05:13.987Z,977
2023-03-13T15:10:18.168Z,977
2023-03-13T15:15:24.893Z,977
2023-03-13T15:20:31.672Z,977
2023-03-13T15:25:38.377Z,977
2023-03-13T15:30:45.143Z,976
2023-03-13T15:35:51.983Z,976
2023-03-13T15:40:58.640Z,976
2023-03-13T15:46:05.863Z,976
2023-03-13T15:51:12.101Z,976
2023-03-13T15:56:18.854Z,976
2023-03-13T16:01:25.707Z,976
2023-03-13T16:06:32.362Z,976
2023-03-13T16:11:39.046Z,976
2023-03-13T16:16:45.895Z,976
2023-03-13T16:21:52.571Z,976
2023-03-13T16:26:59.258Z,976
2023-03-13T16:32:06.019Z,976
2023-03-13T16:37:12.872Z,975
2023-03-13T16:42:19.470Z,975
2023-03-13T16:47:26.201Z,975
2023-03-13T16:52:32.987Z,975
2023-03-13T16:57:39.736Z,975
2023-03-13T17:02:46.465Z,976
2023-03-13T17:07:53.178Z,976
2023-03-13T17:12:59.902Z,976
2023-03-13T17:18:06.631Z,976
2023-03-13T17:23:13.378Z,976
2023-03-13T17:28:20.081Z,975
2023-03-13T17:33:26.869Z,976
2023-03-13T17:38:33.646Z,976
2023-03-13T17:43:40.295Z,976
2023-03-13T17:48:47.029Z,976
2023-03-13T17:53:53.890Z,975
2023-03-13T17:59:00.521Z,975
2023-03-13T18:04:07.296Z,975
2023-03-13T18:09:14.008Z,975
2023-03-13T18:14:20.735Z,975
2023-03-13T18:19:27.545Z,976
2023-03-13T18:24:34.186Z,976
2023-03-13T18:29:40.967Z,976
2023-03-13T18:34:47.661Z,976
2023-03-13T18:39:54.430Z,976
2023-03-13T18:45:02.375Z,976
2023-03-13T18:50:09.131Z,976
2023-03-13T18:55:15.888Z,976
2023-03-13T19:00:22.650Z,976
2023-03-13T19:05:29.287Z,975
2023-03-13T19:10:36.050Z,975
2023-03-13T19:15:42.825Z,975
2023-03-13T19:20:49.555Z,975
2023-03-13T19:25:56.296Z,975
2023-03-13T19:31:03.016Z,975
2023-03-13T19:36:09.758Z,975
2023-03-13T19:41:16.525Z,974
2023-03-13T19:46:23.391Z,974
2023-03-13T19:51:29.952Z,974
2023-03-13T19:56:36.718Z,975
2023-03-13T20:01:43.493Z,975
2023-03-13T20:06:50.171Z,975
2023-03-13T20:11:56.970Z,975
2023-03-13T20:17:03.650Z,975
2023-03-13T20:22:10.382Z,975
2023-03-13T20:27:17.158Z,975
2023-03-13T20:32:23.917Z,975
2023-03-13T20:37:30.597Z,974
2023-03-13T20:42:37.446Z,975
2023-03-13T20:47:44.080Z,975
2023-03-13T20:52:50.825Z,974
2023-03-13T20:57:57.584Z,974
2023-03-13T21:03:04.289Z,974
2023-03-13T21:08:11.032Z,974
2023-03-13T21:13:17.799Z,974
2023-03-13T21:18:24.522Z,974
2023-03-13T21:23:31.242Z,974
2023-03-13T21:28:38.016Z,974
2023-03-13T21:33:44.778Z,974
2023-03-13T21:38:51.443Z,975
2023-03-13T21:43:59.452Z,974
2023-03-13T21:49:06.161Z,974
2023-03-13T21:54:12.904Z,974
2023-03-13T21:59:19.676Z,975
2023-03-13T22:04:26.372Z,975
2023-03-13T22:09:33.128Z,975
2023-03-13T22:14:39.907Z,975
2023-03-13T22:19:46.595Z,975
2023-03-13T22:24:53.296Z,975
2023-03-13T22:30:00.111Z,975
2023-03-13T22:35:06.881Z,975
2023-03-13T22:40:13.535Z,975
2023-03-13T22:45:20.475Z,975
2023-03-13T22:50:26.992Z,975
2023-03-13T22:55:33.748Z,974
2023-03-13T23:00:40.530Z,974
2023-03-13T23:05:47.250Z,974
2023-03-13T23:10:53.940Z,974
2023-03-13T23:16:00.724Z,974
2023-03-13T23:21:07.458Z,974
2023-03-13T23:26:14.180Z,974
2023-03-13T23:31:20.939Z,974
2023-03-13T23:36:27.660Z,974
2023-03-13T23:41:34.382Z,974
2023-03-13T23:46:41.143Z,974
2023-03-13T23:51:47.856Z,974
2023-03-13T23:56:54.682Z,974
